Crew | Aerofun Virtual



 METAR AND TAF INFORMATION
METAR FOR ESNU
ADDS - METARS form results

(1531 UTC 24 May 2019)
Data provider http://aviationweather.gov/metar/data/
 
METAR text: ESNU 241520Z VRB02KT 9999 BKN012 09/06 Q1008
Conditions at: ESNU (UMEA AIRPORT , SE) observed 1520 UTC 24 May 2019
Temperature: 9.0°C (48°F)
Dewpoint: 6.0°C (43°F) [RH = 81%]
Pressure (altimeter): 29.76 inches Hg (1008.0 mb)
Winds: variable direction winds at 2 MPH (2 knots; 1.0 m/s)
Visibility: 6 or more miles (10+ km)
Ceiling: 1200 feet AGL
Clouds: broken clouds at 1200 feet AGL
Weather: no significant weather observed at this time

METAR text: ESNU 241450Z VRB02KT 9999 BKN012 09/06 Q1008
Conditions at: ESNU (UMEA AIRPORT , SE) observed 1450 UTC 24 May 2019
Temperature: 9.0°C (48°F)
Dewpoint: 6.0°C (43°F) [RH = 81%]
Pressure (altimeter): 29.76 inches Hg (1008.0 mb)
Winds: variable direction winds at 2 MPH (2 knots; 1.0 m/s)
Visibility: 6 or more miles (10+ km)
Ceiling: 1200 feet AGL
Clouds: broken clouds at 1200 feet AGL
Weather: no significant weather observed at this time

Forecast for: ESNU (UMEA AIRPORT , SE)
Text: TAF ESNU 241430Z 2415/2424 34005KT 9999 BKN011
Forecast period: 1500 UTC 24 May 2019 to 0000 UTC 25 May 2019
Forecast type: FROM: standard forecast or significant change
Winds: from the NNW (340 degrees) at 6 MPH (5 knots; 2.6 m/s)
Visibility: 6 or more miles 10+ km)
Ceiling: 1100 feet AGL
Clouds: broken clouds at 1100 feet AGL
Weather: no significant weather forecast for this period
Text: TEMPO 2415/2424 BKN009
Forecast period: 1500 UTC 24 May 2019 to 0000 UTC 25 May 2019
Forecast type: TEMPORARY: The following changes expected for less than half the time period
Visibility: missing
Ceiling: 900 feet AGL
Clouds: broken clouds at 900 feet AGL
Weather: no significant weather forecast for this period

 AIRPORT MAP

 RUNWAY INFORMATION
Runway 14 Runway length 7551 ft Runway width 148 ft
Runway elevation 24 ft Runway displaced threshold 0 ft Runway heading 138
Runway 32 Runway length 7551 ft Runway width 148 ft
Runway elevation 17 ft Runway displaced threshold 196 ft Runway heading 318

 AIRPORT FREQUENCIES
Type TWR Name TWR Frequency 119.8 MHZ

 AIRPORT NEAR NAVIGATION AIDS
Type VOR-DME Name Umea Frequency 114100 KHZ